sensor_id;sensor_type;location;lat;lon;timestamp;P1;durP1;ratioP1;P2;durP2;ratioP2
66212;SDS011;53015;50.046;8.238;2023-12-14T00:00:13;6.50;;;3.35;;
66212;SDS011;53015;50.046;8.238;2023-12-14T00:02:39;10.00;;;3.17;;
66212;SDS011;53015;50.046;8.238;2023-12-14T00:05:05;5.93;;;2.88;;
66212;SDS011;53015;50.046;8.238;2023-12-14T00:07:31;7.97;;;3.10;;
66212;SDS011;53015;50.046;8.238;2023-12-14T00:09:56;4.97;;;2.80;;
66212;SDS011;53015;50.046;8.238;2023-12-14T00:12:22;5.55;;;2.60;;
66212;SDS011;53015;50.046;8.238;2023-12-14T00:14:49;7.03;;;3.13;;
66212;SDS011;53015;50.046;8.238;2023-12-14T00:17:15;6.60;;;2.70;;
66212;SDS011;53015;50.046;8.238;2023-12-14T00:19:40;9.07;;;3.38;;
66212;SDS011;53015;50.046;8.238;2023-12-14T00:22:06;6.43;;;2.95;;
66212;SDS011;53015;50.046;8.238;2023-12-14T00:24:31;13.55;;;3.42;;
66212;SDS011;53015;50.046;8.238;2023-12-14T00:26:57;6.45;;;2.78;;
66212;SDS011;53015;50.046;8.238;2023-12-14T00:29:23;5.30;;;2.63;;
66212;SDS011;53015;50.046;8.238;2023-12-14T00:31:49;7.47;;;3.13;;
66212;SDS011;53015;50.046;8.238;2023-12-14T00:34:15;4.63;;;2.47;;
66212;SDS011;53015;50.046;8.238;2023-12-14T00:36:40;7.72;;;2.80;;
66212;SDS011;53015;50.046;8.238;2023-12-14T00:39:06;9.10;;;2.83;;
66212;SDS011;53015;50.046;8.238;2023-12-14T00:41:31;5.43;;;2.47;;
66212;SDS011;53015;50.046;8.238;2023-12-14T00:43:57;8.05;;;2.85;;
66212;SDS011;53015;50.046;8.238;2023-12-14T00:46:22;6.10;;;2.63;;
66212;SDS011;53015;50.046;8.238;2023-12-14T00:48:49;4.40;;;2.20;;
66212;SDS011;53015;50.046;8.238;2023-12-14T00:51:15;8.68;;;2.88;;
66212;SDS011;53015;50.046;8.238;2023-12-14T00:53:40;5.53;;;2.90;;
66212;SDS011;53015;50.046;8.238;2023-12-14T00:56:07;6.65;;;2.88;;
66212;SDS011;53015;50.046;8.238;2023-12-14T00:58:33;8.30;;;2.90;;
66212;SDS011;53015;50.046;8.238;2023-12-14T01:00:58;7.47;;;2.60;;
66212;SDS011;53015;50.046;8.238;2023-12-14T01:03:24;10.00;;;2.90;;
66212;SDS011;53015;50.046;8.238;2023-12-14T01:05:51;6.15;;;2.70;;
66212;SDS011;53015;50.046;8.238;2023-12-14T01:08:16;7.38;;;2.90;;
66212;SDS011;53015;50.046;8.238;2023-12-14T01:10:42;5.75;;;2.78;;
66212;SDS011;53015;50.046;8.238;2023-12-14T01:13:08;5.30;;;2.60;;
66212;SDS011;53015;50.046;8.238;2023-12-14T01:15:33;6.43;;;2.47;;
66212;SDS011;53015;50.046;8.238;2023-12-14T01:17:59;11.00;;;2.60;;
66212;SDS011;53015;50.046;8.238;2023-12-14T01:20:24;6.10;;;2.42;;
66212;SDS011;53015;50.046;8.238;2023-12-14T01:22:51;7.82;;;2.75;;
66212;SDS011;53015;50.046;8.238;2023-12-14T01:25:16;7.47;;;2.53;;
66212;SDS011;53015;50.046;8.238;2023-12-14T01:27:42;9.20;;;2.53;;
66212;SDS011;53015;50.046;8.238;2023-12-14T01:30:08;6.03;;;2.33;;
66212;SDS011;53015;50.046;8.238;2023-12-14T01:32:34;5.88;;;2.42;;
66212;SDS011;53015;50.046;8.238;2023-12-14T01:34:59;8.43;;;2.20;;
66212;SDS011;53015;50.046;8.238;2023-12-14T01:37:25;5.40;;;2.20;;
66212;SDS011;53015;50.046;8.238;2023-12-14T01:39:51;6.28;;;2.25;;
66212;SDS011;53015;50.046;8.238;2023-12-14T01:42:17;7.15;;;2.88;;
66212;SDS011;53015;50.046;8.238;2023-12-14T01:44:42;4.93;;;2.80;;
66212;SDS011;53015;50.046;8.238;2023-12-14T01:47:08;5.45;;;2.22;;
66212;SDS011;53015;50.046;8.238;2023-12-14T01:49:33;7.47;;;2.63;;
66212;SDS011;53015;50.046;8.238;2023-12-14T01:51:59;5.03;;;2.50;;
66212;SDS011;53015;50.046;8.238;2023-12-14T01:54:24;5.53;;;2.72;;
66212;SDS011;53015;50.046;8.238;2023-12-14T01:56:51;4.55;;;2.40;;
66212;SDS011;53015;50.046;8.238;2023-12-14T01:59:17;7.10;;;2.30;;
66212;SDS011;53015;50.046;8.238;2023-12-14T02:01:43;6.20;;;2.55;;
66212;SDS011;53015;50.046;8.238;2023-12-14T02:04:10;7.38;;;2.20;;
66212;SDS011;53015;50.046;8.238;2023-12-14T02:06:36;4.18;;;2.33;;
66212;SDS011;53015;50.046;8.238;2023-12-14T02:09:02;3.72;;;2.35;;
66212;SDS011;53015;50.046;8.238;2023-12-14T02:11:27;7.03;;;2.22;;
66212;SDS011;53015;50.046;8.238;2023-12-14T02:13:54;3.67;;;2.17;;
66212;SDS011;53015;50.046;8.238;2023-12-14T02:16:20;3.78;;;2.10;;
66212;SDS011;53015;50.046;8.238;2023-12-14T02:18:45;4.43;;;2.10;;
66212;SDS011;53015;50.046;8.238;2023-12-14T02:21:11;5.68;;;2.10;;
66212;SDS011;53015;50.046;8.238;2023-12-14T02:23:43;5.80;;;2.17;;
66212;SDS011;53015;50.046;8.238;2023-12-14T02:26:08;4.88;;;2.10;;
66212;SDS011;53015;50.046;8.238;2023-12-14T02:28:34;7.65;;;2.40;;
66212;SDS011;53015;50.046;8.238;2023-12-14T02:30:59;3.83;;;1.98;;
66212;SDS011;53015;50.046;8.238;2023-12-14T02:33:25;6.90;;;2.00;;
66212;SDS011;53015;50.046;8.238;2023-12-14T02:35:50;4.10;;;1.90;;
66212;SDS011;53015;50.046;8.238;2023-12-14T02:38:16;5.10;;;2.15;;
66212;SDS011;53015;50.046;8.238;2023-12-14T02:40:43;5.55;;;2.00;;
66212;SDS011;53015;50.046;8.238;2023-12-14T02:43:09;7.13;;;2.50;;
66212;SDS011;53015;50.046;8.238;2023-12-14T02:45:34;5.68;;;1.90;;
66212;SDS011;53015;50.046;8.238;2023-12-14T02:47:59;4.88;;;2.17;;
66212;SDS011;53015;50.046;8.238;2023-12-14T02:50:25;4.43;;;1.92;;
66212;SDS011;53015;50.046;8.238;2023-12-14T02:52:50;4.55;;;1.88;;
66212;SDS011;53015;50.046;8.238;2023-12-14T02:55:16;9.18;;;2.28;;
66212;SDS011;53015;50.046;8.238;2023-12-14T02:57:43;4.68;;;1.88;;
66212;SDS011;53015;50.046;8.238;2023-12-14T03:00:09;4.95;;;2.50;;
66212;SDS011;53015;50.046;8.238;2023-12-14T03:02:35;5.85;;;2.40;;
66212;SDS011;53015;50.046;8.238;2023-12-14T03:05:00;10.02;;;2.25;;
66212;SDS011;53015;50.046;8.238;2023-12-14T03:07:26;4.63;;;2.00;;
66212;SDS011;53015;50.046;8.238;2023-12-14T03:09:51;3.05;;;2.15;;
66212;SDS011;53015;50.046;8.238;2023-12-14T03:12:17;6.82;;;1.88;;
66212;SDS011;53015;50.046;8.238;2023-12-14T03:14:44;5.25;;;2.40;;
66212;SDS011;53015;50.046;8.238;2023-12-14T03:17:09;4.80;;;2.10;;
66212;SDS011;53015;50.046;8.238;2023-12-14T03:19:34;2.95;;;1.85;;
66212;SDS011;53015;50.046;8.238;2023-12-14T03:22:00;2.85;;;1.90;;
66212;SDS011;53015;50.046;8.238;2023-12-14T03:24:26;4.85;;;2.17;;
66212;SDS011;53015;50.046;8.238;2023-12-14T03:26:51;7.95;;;2.10;;
66212;SDS011;53015;50.046;8.238;2023-12-14T03:29:18;9.85;;;2.38;;
66212;SDS011;53015;50.046;8.238;2023-12-14T03:31:46;6.80;;;2.22;;
66212;SDS011;53015;50.046;8.238;2023-12-14T03:34:11;8.43;;;2.70;;
66212;SDS011;53015;50.046;8.238;2023-12-14T03:36:37;5.15;;;2.20;;
66212;SDS011;53015;50.046;8.238;2023-12-14T03:39:02;5.18;;;1.80;;
66212;SDS011;53015;50.046;8.238;2023-12-14T03:41:28;8.00;;;2.03;;
66212;SDS011;53015;50.046;8.238;2023-12-14T03:43:54;2.13;;;1.70;;
66212;SDS011;53015;50.046;8.238;2023-12-14T03:46:19;5.90;;;2.00;;
66212;SDS011;53015;50.046;8.238;2023-12-14T03:48:47;6.60;;;2.20;;
66212;SDS011;53015;50.046;8.238;2023-12-14T03:51:12;6.93;;;1.73;;
66212;SDS011;53015;50.046;8.238;2023-12-14T03:53:38;5.25;;;2.05;;
66212;SDS011;53015;50.046;8.238;2023-12-14T03:56:04;5.95;;;2.33;;
66212;SDS011;53015;50.046;8.238;2023-12-14T03:58:30;4.10;;;1.88;;
66212;SDS011;53015;50.046;8.238;2023-12-14T04:00:55;4.68;;;2.10;;
66212;SDS011;53015;50.046;8.238;2023-12-14T04:03:21;5.07;;;2.13;;
66212;SDS011;53015;50.046;8.238;2023-12-14T04:05:49;8.30;;;2.40;;
66212;SDS011;53015;50.046;8.238;2023-12-14T04:08:15;4.32;;;2.30;;
66212;SDS011;53015;50.046;8.238;2023-12-14T04:10:40;3.85;;;1.95;;
66212;SDS011;53015;50.046;8.238;2023-12-14T04:13:06;5.10;;;2.08;;
66212;SDS011;53015;50.046;8.238;2023-12-14T04:15:31;3.78;;;2.08;;
66212;SDS011;53015;50.046;8.238;2023-12-14T04:17:57;4.38;;;2.47;;
66212;SDS011;53015;50.046;8.238;2023-12-14T04:20:22;6.70;;;2.58;;
66212;SDS011;53015;50.046;8.238;2023-12-14T04:22:49;4.93;;;2.65;;
66212;SDS011;53015;50.046;8.238;2023-12-14T04:25:14;5.57;;;2.95;;
66212;SDS011;53015;50.046;8.238;2023-12-14T04:27:40;6.05;;;3.08;;
66212;SDS011;53015;50.046;8.238;2023-12-14T04:30:06;5.72;;;2.67;;
66212;SDS011;53015;50.046;8.238;2023-12-14T04:32:32;5.22;;;2.30;;
66212;SDS011;53015;50.046;8.238;2023-12-14T04:34:57;5.68;;;2.60;;
66212;SDS011;53015;50.046;8.238;2023-12-14T04:37:23;7.80;;;2.80;;
66212;SDS011;53015;50.046;8.238;2023-12-14T04:39:50;5.72;;;2.72;;
66212;SDS011;53015;50.046;8.238;2023-12-14T04:42:15;7.82;;;2.70;;
66212;SDS011;53015;50.046;8.238;2023-12-14T04:44:41;5.82;;;2.75;;
66212;SDS011;53015;50.046;8.238;2023-12-14T04:47:06;5.05;;;2.42;;
66212;SDS011;53015;50.046;8.238;2023-12-14T04:49:32;4.22;;;2.60;;
66212;SDS011;53015;50.046;8.238;2023-12-14T04:51:57;6.97;;;2.75;;
66212;SDS011;53015;50.046;8.238;2023-12-14T04:54:22;6.18;;;2.80;;
66212;SDS011;53015;50.046;8.238;2023-12-14T04:56:49;5.95;;;2.88;;
66212;SDS011;53015;50.046;8.238;2023-12-14T04:59:15;4.60;;;2.70;;
66212;SDS011;53015;50.046;8.238;2023-12-14T05:01:40;5.10;;;2.65;;
66212;SDS011;53015;50.046;8.238;2023-12-14T05:04:06;7.07;;;3.08;;
66212;SDS011;53015;50.046;8.238;2023-12-14T05:06:31;6.80;;;2.80;;
66212;SDS011;53015;50.046;8.238;2023-12-14T05:08:57;8.18;;;2.70;;
66212;SDS011;53015;50.046;8.238;2023-12-14T05:11:22;7.38;;;2.75;;
66212;SDS011;53015;50.046;8.238;2023-12-14T05:13:49;5.35;;;2.58;;
66212;SDS011;53015;50.046;8.238;2023-12-14T05:16:14;4.45;;;2.80;;
66212;SDS011;53015;50.046;8.238;2023-12-14T05:18:40;6.53;;;3.28;;
66212;SDS011;53015;50.046;8.238;2023-12-14T05:21:06;6.00;;;3.10;;
66212;SDS011;53015;50.046;8.238;2023-12-14T05:23:31;9.27;;;3.78;;
66212;SDS011;53015;50.046;8.238;2023-12-14T05:25:57;7.78;;;2.90;;
66212;SDS011;53015;50.046;8.238;2023-12-14T05:28:22;8.02;;;3.50;;
66212;SDS011;53015;50.046;8.238;2023-12-14T05:30:49;6.18;;;3.20;;
66212;SDS011;53015;50.046;8.238;2023-12-14T05:33:15;5.63;;;2.85;;
66212;SDS011;53015;50.046;8.238;2023-12-14T05:35:40;5.47;;;3.05;;
66212;SDS011;53015;50.046;8.238;2023-12-14T05:38:06;6.22;;;2.90;;
66212;SDS011;53015;50.046;8.238;2023-12-14T05:40:31;6.07;;;2.92;;
66212;SDS011;53015;50.046;8.238;2023-12-14T05:42:57;7.32;;;3.50;;
66212;SDS011;53015;50.046;8.238;2023-12-14T05:45:22;9.82;;;4.05;;
66212;SDS011;53015;50.046;8.238;2023-12-14T05:47:49;4.80;;;2.85;;
66212;SDS011;53015;50.046;8.238;2023-12-14T05:50:15;8.43;;;3.45;;
66212;SDS011;53015;50.046;8.238;2023-12-14T05:52:40;6.18;;;3.33;;
66212;SDS011;53015;50.046;8.238;2023-12-14T05:55:07;6.07;;;3.08;;
66212;SDS011;53015;50.046;8.238;2023-12-14T05:57:33;6.30;;;3.53;;
66212;SDS011;53015;50.046;8.238;2023-12-14T05:59:58;9.27;;;3.47;;
66212;SDS011;53015;50.046;8.238;2023-12-14T06:02:24;7.80;;;3.55;;
66212;SDS011;53015;50.046;8.238;2023-12-14T06:04:50;8.77;;;3.33;;
66212;SDS011;53015;50.046;8.238;2023-12-14T06:07:16;7.90;;;3.47;;
66212;SDS011;53015;50.046;8.238;2023-12-14T06:09:41;7.40;;;3.40;;
66212;SDS011;53015;50.046;8.238;2023-12-14T06:12:07;9.93;;;3.53;;
66212;SDS011;53015;50.046;8.238;2023-12-14T06:14:33;6.47;;;3.13;;
66212;SDS011;53015;50.046;8.238;2023-12-14T06:16:58;5.55;;;3.42;;
66212;SDS011;53015;50.046;8.238;2023-12-14T06:19:24;7.68;;;3.45;;
66212;SDS011;53015;50.046;8.238;2023-12-14T06:21:50;8.73;;;3.50;;
66212;SDS011;53015;50.046;8.238;2023-12-14T06:24:16;6.10;;;3.10;;
66212;SDS011;53015;50.046;8.238;2023-12-14T06:26:41;7.38;;;3.20;;
66212;SDS011;53015;50.046;8.238;2023-12-14T06:29:07;6.70;;;3.50;;
66212;SDS011;53015;50.046;8.238;2023-12-14T06:31:33;6.07;;;3.53;;
66212;SDS011;53015;50.046;8.238;2023-12-14T06:33:58;11.88;;;3.80;;
66212;SDS011;53015;50.046;8.238;2023-12-14T06:36:24;4.43;;;2.90;;
66212;SDS011;53015;50.046;8.238;2023-12-14T06:38:51;7.72;;;3.50;;
66212;SDS011;53015;50.046;8.238;2023-12-14T06:41:19;9.93;;;3.65;;
66212;SDS011;53015;50.046;8.238;2023-12-14T06:43:45;8.73;;;3.58;;
66212;SDS011;53015;50.046;8.238;2023-12-14T06:46:11;8.30;;;3.55;;
66212;SDS011;53015;50.046;8.238;2023-12-14T06:48:36;10.50;;;3.90;;
66212;SDS011;53015;50.046;8.238;2023-12-14T06:51:02;8.32;;;3.72;;
66212;SDS011;53015;50.046;8.238;2023-12-14T06:53:27;7.55;;;3.80;;
66212;SDS011;53015;50.046;8.238;2023-12-14T06:55:54;7.10;;;4.20;;
66212;SDS011;53015;50.046;8.238;2023-12-14T06:58:20;7.90;;;3.80;;
66212;SDS011;53015;50.046;8.238;2023-12-14T07:00:45;5.60;;;3.72;;
66212;SDS011;53015;50.046;8.238;2023-12-14T07:03:11;7.95;;;4.00;;
66212;SDS011;53015;50.046;8.238;2023-12-14T07:05:36;9.23;;;4.03;;
66212;SDS011;53015;50.046;8.238;2023-12-14T07:08:02;10.00;;;4.00;;
66212;SDS011;53015;50.046;8.238;2023-12-14T07:10:27;6.72;;;3.95;;
66212;SDS011;53015;50.046;8.238;2023-12-14T07:12:54;8.10;;;4.40;;
66212;SDS011;53015;50.046;8.238;2023-12-14T07:15:19;7.72;;;3.70;;
66212;SDS011;53015;50.046;8.238;2023-12-14T07:17:45;6.40;;;3.75;;
66212;SDS011;53015;50.046;8.238;2023-12-14T07:20:11;9.18;;;4.18;;
66212;SDS011;53015;50.046;8.238;2023-12-14T07:22:37;7.90;;;4.72;;
66212;SDS011;53015;50.046;8.238;2023-12-14T07:25:02;11.05;;;4.75;;
66212;SDS011;53015;50.046;8.238;2023-12-14T07:27:28;8.77;;;5.00;;
66212;SDS011;53015;50.046;8.238;2023-12-14T07:29:55;12.45;;;6.38;;
66212;SDS011;53015;50.046;8.238;2023-12-14T07:32:21;23.23;;;11.15;;
66212;SDS011;53015;50.046;8.238;2023-12-14T07:34:46;21.45;;;10.27;;
66212;SDS011;53015;50.046;8.238;2023-12-14T07:37:12;34.17;;;17.13;;
66212;SDS011;53015;50.046;8.238;2023-12-14T07:39:38;37.70;;;19.30;;
66212;SDS011;53015;50.046;8.238;2023-12-14T07:42:04;30.08;;;15.40;;
66212;SDS011;53015;50.046;8.238;2023-12-14T07:44:29;20.83;;;10.30;;
66212;SDS011;53015;50.046;8.238;2023-12-14T07:46:56;15.13;;;9.13;;
66212;SDS011;53015;50.046;8.238;2023-12-14T07:49:23;17.90;;;9.68;;
66212;SDS011;53015;50.046;8.238;2023-12-14T07:51:48;22.15;;;8.77;;
66212;SDS011;53015;50.046;8.238;2023-12-14T07:54:14;15.32;;;7.15;;
66212;SDS011;53015;50.046;8.238;2023-12-14T07:56:39;12.80;;;6.20;;
66212;SDS011;53015;50.046;8.238;2023-12-14T07:59:05;14.35;;;5.93;;
66212;SDS011;53015;50.046;8.238;2023-12-14T08:01:30;11.25;;;5.43;;
66212;SDS011;53015;50.046;8.238;2023-12-14T08:03:57;13.18;;;5.72;;
66212;SDS011;53015;50.046;8.238;2023-12-14T08:06:23;13.95;;;7.07;;
66212;SDS011;53015;50.046;8.238;2023-12-14T08:08:48;13.95;;;7.82;;
66212;SDS011;53015;50.046;8.238;2023-12-14T08:11:14;11.10;;;7.15;;
66212;SDS011;53015;50.046;8.238;2023-12-14T08:13:39;13.38;;;6.55;;
66212;SDS011;53015;50.046;8.238;2023-12-14T08:16:08;10.18;;;6.10;;
66212;SDS011;53015;50.046;8.238;2023-12-14T08:18:34;9.73;;;6.47;;
66212;SDS011;53015;50.046;8.238;2023-12-14T08:21:01;14.40;;;6.22;;
66212;SDS011;53015;50.046;8.238;2023-12-14T08:23:26;10.82;;;5.90;;
66212;SDS011;53015;50.046;8.238;2023-12-14T08:25:51;9.23;;;5.65;;
66212;SDS011;53015;50.046;8.238;2023-12-14T08:28:17;9.50;;;5.45;;
66212;SDS011;53015;50.046;8.238;2023-12-14T08:30:43;7.07;;;4.40;;
66212;SDS011;53015;50.046;8.238;2023-12-14T08:33:08;7.00;;;4.05;;
66212;SDS011;53015;50.046;8.238;2023-12-14T08:35:34;7.20;;;4.13;;
66212;SDS011;53015;50.046;8.238;2023-12-14T08:38:01;5.57;;;4.03;;
66212;SDS011;53015;50.046;8.238;2023-12-14T08:40:26;6.15;;;3.70;;
66212;SDS011;53015;50.046;8.238;2023-12-14T08:42:52;7.57;;;3.10;;
66212;SDS011;53015;50.046;8.238;2023-12-14T08:45:17;5.45;;;3.58;;
66212;SDS011;53015;50.046;8.238;2023-12-14T08:47:43;4.57;;;3.45;;
66212;SDS011;53015;50.046;8.238;2023-12-14T08:50:08;5.63;;;3.50;;
66212;SDS011;53015;50.046;8.238;2023-12-14T08:52:34;5.00;;;3.42;;
66212;SDS011;53015;50.046;8.238;2023-12-14T08:55:00;7.70;;;3.53;;
66212;SDS011;53015;50.046;8.238;2023-12-14T08:57:26;7.93;;;4.72;;
66212;SDS011;53015;50.046;8.238;2023-12-14T08:59:51;4.82;;;3.33;;
66212;SDS011;53015;50.046;8.238;2023-12-14T09:02:17;5.80;;;3.05;;
66212;SDS011;53015;50.046;8.238;2023-12-14T09:04:42;4.95;;;3.30;;
66212;SDS011;53015;50.046;8.238;2023-12-14T09:07:08;6.22;;;3.65;;
66212;SDS011;53015;50.046;8.238;2023-12-14T09:09:33;5.18;;;3.40;;
66212;SDS011;53015;50.046;8.238;2023-12-14T09:12:00;4.78;;;3.25;;
66212;SDS011;53015;50.046;8.238;2023-12-14T09:14:26;9.20;;;5.30;;
66212;SDS011;53015;50.046;8.238;2023-12-14T09:16:54;8.80;;;4.68;;
66212;SDS011;53015;50.046;8.238;2023-12-14T09:19:19;5.63;;;3.67;;
66212;SDS011;53015;50.046;8.238;2023-12-14T09:21:45;6.18;;;3.28;;
66212;SDS011;53015;50.046;8.238;2023-12-14T09:24:10;4.63;;;3.38;;
66212;SDS011;53015;50.046;8.238;2023-12-14T09:26:36;5.85;;;3.70;;
66212;SDS011;53015;50.046;8.238;2023-12-14T09:29:03;6.07;;;3.20;;
66212;SDS011;53015;50.046;8.238;2023-12-14T09:31:28;6.00;;;3.25;;
66212;SDS011;53015;50.046;8.238;2023-12-14T09:33:54;5.15;;;3.38;;
66212;SDS011;53015;50.046;8.238;2023-12-14T09:36:19;5.80;;;3.70;;
66212;SDS011;53015;50.046;8.238;2023-12-14T09:38:45;6.43;;;3.90;;
66212;SDS011;53015;50.046;8.238;2023-12-14T09:41:10;7.40;;;4.30;;
66212;SDS011;53015;50.046;8.238;2023-12-14T09:43:36;6.28;;;4.18;;
66212;SDS011;53015;50.046;8.238;2023-12-14T09:46:04;5.30;;;3.38;;
66212;SDS011;53015;50.046;8.238;2023-12-14T09:48:29;5.72;;;3.60;;
66212;SDS011;53015;50.046;8.238;2023-12-14T09:50:57;6.00;;;3.40;;
66212;SDS011;53015;50.046;8.238;2023-12-14T09:53:22;5.80;;;3.42;;
66212;SDS011;53015;50.046;8.238;2023-12-14T09:55:48;4.93;;;3.15;;
66212;SDS011;53015;50.046;8.238;2023-12-14T09:58:13;6.32;;;3.17;;
66212;SDS011;53015;50.046;8.238;2023-12-14T10:00:39;8.75;;;3.60;;
66212;SDS011;53015;50.046;8.238;2023-12-14T10:03:19;6.15;;;3.58;;
66212;SDS011;53015;50.046;8.238;2023-12-14T10:05:46;5.72;;;3.70;;
66212;SDS011;53015;50.046;8.238;2023-12-14T10:08:12;5.63;;;3.67;;
66212;SDS011;53015;50.046;8.238;2023-12-14T10:10:38;5.43;;;3.80;;
66212;SDS011;53015;50.046;8.238;2023-12-14T10:13:03;5.90;;;3.40;;
66212;SDS011;53015;50.046;8.238;2023-12-14T10:15:29;8.00;;;3.60;;
66212;SDS011;53015;50.046;8.238;2023-12-14T10:17:54;5.63;;;3.47;;
66212;SDS011;53015;50.046;8.238;2023-12-14T10:20:22;4.80;;;3.40;;
66212;SDS011;53015;50.046;8.238;2023-12-14T10:22:48;5.35;;;3.50;;
66212;SDS011;53015;50.046;8.238;2023-12-14T10:25:13;5.10;;;3.67;;
66212;SDS011;53015;50.046;8.238;2023-12-14T10:27:39;5.25;;;3.58;;
66212;SDS011;53015;50.046;8.238;2023-12-14T10:30:05;7.03;;;3.67;;
66212;SDS011;53015;50.046;8.238;2023-12-14T10:32:31;6.28;;;3.85;;
66212;SDS011;53015;50.046;8.238;2023-12-14T10:35:07;7.32;;;3.92;;
66212;SDS011;53015;50.046;8.238;2023-12-14T10:37:36;4.97;;;3.22;;
66212;SDS011;53015;50.046;8.238;2023-12-14T10:40:03;5.70;;;3.80;;
66212;SDS011;53015;50.046;8.238;2023-12-14T10:42:30;4.50;;;3.42;;
66212;SDS011;53015;50.046;8.238;2023-12-14T10:44:58;5.97;;;3.85;;
66212;SDS011;53015;50.046;8.238;2023-12-14T10:47:27;5.22;;;3.55;;
66212;SDS011;53015;50.046;8.238;2023-12-14T10:49:52;4.13;;;3.47;;
66212;SDS011;53015;50.046;8.238;2023-12-14T10:52:30;6.63;;;3.78;;
66212;SDS011;53015;50.046;8.238;2023-12-14T10:54:56;5.35;;;3.38;;
66212;SDS011;53015;50.046;8.238;2023-12-14T10:57:26;5.22;;;3.63;;
66212;SDS011;53015;50.046;8.238;2023-12-14T10:59:57;4.18;;;3.35;;
66212;SDS011;53015;50.046;8.238;2023-12-14T11:02:23;4.90;;;3.60;;
66212;SDS011;53015;50.046;8.238;2023-12-14T11:04:53;5.05;;;3.35;;
66212;SDS011;53015;50.046;8.238;2023-12-14T11:10:23;4.78;;;2.92;;
66212;SDS011;53015;50.046;8.238;2023-12-14T11:12:54;4.70;;;3.30;;
66212;SDS011;53015;50.046;8.238;2023-12-14T11:15:21;5.03;;;3.20;;
66212;SDS011;53015;50.046;8.238;2023-12-14T11:20:48;4.30;;;3.28;;
66212;SDS011;53015;50.046;8.238;2023-12-14T11:23:15;7.07;;;3.55;;
66212;SDS011;53015;50.046;8.238;2023-12-14T11:25:43;4.97;;;3.35;;
66212;SDS011;53015;50.046;8.238;2023-12-14T11:28:12;5.57;;;3.58;;
66212;SDS011;53015;50.046;8.238;2023-12-14T11:30:38;7.70;;;3.85;;
66212;SDS011;53015;50.046;8.238;2023-12-14T11:33:04;5.70;;;4.15;;
66212;SDS011;53015;50.046;8.238;2023-12-14T11:35:29;6.47;;;4.38;;
66212;SDS011;53015;50.046;8.238;2023-12-14T11:37:55;6.13;;;4.07;;
66212;SDS011;53015;50.046;8.238;2023-12-14T11:40:20;5.78;;;3.88;;
66212;SDS011;53015;50.046;8.238;2023-12-14T11:42:56;7.10;;;4.35;;
66212;SDS011;53015;50.046;8.238;2023-12-14T11:45:22;5.82;;;4.18;;
66212;SDS011;53015;50.046;8.238;2023-12-14T11:47:48;7.20;;;4.75;;
66212;SDS011;53015;50.046;8.238;2023-12-14T11:50:14;5.80;;;4.03;;
66212;SDS011;53015;50.046;8.238;2023-12-14T11:52:40;5.15;;;3.65;;
66212;SDS011;53015;50.046;8.238;2023-12-14T11:55:06;6.50;;;4.28;;
66212;SDS011;53015;50.046;8.238;2023-12-14T11:57:32;6.03;;;3.85;;
66212;SDS011;53015;50.046;8.238;2023-12-14T11:59:59;5.53;;;4.13;;
66212;SDS011;53015;50.046;8.238;2023-12-14T12:02:25;7.10;;;4.60;;
66212;SDS011;53015;50.046;8.238;2023-12-14T12:04:50;6.22;;;4.60;;
66212;SDS011;53015;50.046;8.238;2023-12-14T12:07:16;6.80;;;4.78;;
66212;SDS011;53015;50.046;8.238;2023-12-14T12:09:42;6.85;;;4.82;;
66212;SDS011;53015;50.046;8.238;2023-12-14T12:12:09;8.20;;;4.82;;
66212;SDS011;53015;50.046;8.238;2023-12-14T12:14:36;7.00;;;4.20;;
66212;SDS011;53015;50.046;8.238;2023-12-14T12:17:03;5.72;;;3.42;;
66212;SDS011;53015;50.046;8.238;2023-12-14T12:19:29;5.90;;;3.63;;
66212;SDS011;53015;50.046;8.238;2023-12-14T12:21:55;5.90;;;3.80;;
66212;SDS011;53015;50.046;8.238;2023-12-14T12:24:21;7.50;;;4.00;;
66212;SDS011;53015;50.046;8.238;2023-12-14T12:26:46;6.70;;;4.05;;
66212;SDS011;53015;50.046;8.238;2023-12-14T12:29:12;5.32;;;3.50;;
66212;SDS011;53015;50.046;8.238;2023-12-14T12:31:37;4.75;;;3.85;;
66212;SDS011;53015;50.046;8.238;2023-12-14T12:34:04;6.32;;;3.80;;
66212;SDS011;53015;50.046;8.238;2023-12-14T12:36:30;6.50;;;4.10;;
66212;SDS011;53015;50.046;8.238;2023-12-14T12:38:55;5.68;;;3.25;;
66212;SDS011;53015;50.046;8.238;2023-12-14T12:41:24;5.57;;;3.30;;
66212;SDS011;53015;50.046;8.238;2023-12-14T12:43:49;5.60;;;3.55;;
66212;SDS011;53015;50.046;8.238;2023-12-14T12:46:15;5.28;;;3.67;;
66212;SDS011;53015;50.046;8.238;2023-12-14T12:48:40;7.88;;;5.13;;
66212;SDS011;53015;50.046;8.238;2023-12-14T12:51:07;7.90;;;3.58;;
66212;SDS011;53015;50.046;8.238;2023-12-14T12:53:33;6.00;;;3.65;;
66212;SDS011;53015;50.046;8.238;2023-12-14T12:55:58;6.35;;;3.70;;
66212;SDS011;53015;50.046;8.238;2023-12-14T12:58:24;6.30;;;3.85;;
66212;SDS011;53015;50.046;8.238;2023-12-14T13:00:49;6.80;;;3.92;;
66212;SDS011;53015;50.046;8.238;2023-12-14T13:03:15;6.28;;;4.00;;
66212;SDS011;53015;50.046;8.238;2023-12-14T13:05:40;8.32;;;3.80;;
66212;SDS011;53015;50.046;8.238;2023-12-14T13:08:07;6.28;;;3.92;;
66212;SDS011;53015;50.046;8.238;2023-12-14T13:10:32;4.18;;;2.85;;
66212;SDS011;53015;50.046;8.238;2023-12-14T13:12:58;5.85;;;2.72;;
66212;SDS011;53015;50.046;8.238;2023-12-14T13:15:24;4.15;;;2.83;;
66212;SDS011;53015;50.046;8.238;2023-12-14T13:17:49;6.00;;;2.95;;
66212;SDS011;53015;50.046;8.238;2023-12-14T13:20:15;4.50;;;3.30;;
66212;SDS011;53015;50.046;8.238;2023-12-14T13:22:40;4.50;;;2.90;;
66212;SDS011;53015;50.046;8.238;2023-12-14T13:25:07;5.20;;;3.25;;
66212;SDS011;53015;50.046;8.238;2023-12-14T13:27:33;4.78;;;2.55;;
66212;SDS011;53015;50.046;8.238;2023-12-14T13:29:58;5.68;;;3.00;;
66212;SDS011;53015;50.046;8.238;2023-12-14T13:32:24;4.93;;;3.00;;
66212;SDS011;53015;50.046;8.238;2023-12-14T13:34:49;3.65;;;2.58;;
66212;SDS011;53015;50.046;8.238;2023-12-14T13:37:15;3.88;;;2.88;;
66212;SDS011;53015;50.046;8.238;2023-12-14T13:39:40;4.15;;;3.03;;
66212;SDS011;53015;50.046;8.238;2023-12-14T13:42:07;4.30;;;2.40;;
66212;SDS011;53015;50.046;8.238;2023-12-14T13:44:32;4.78;;;2.60;;
66212;SDS011;53015;50.046;8.238;2023-12-14T13:46:58;4.40;;;2.88;;
66212;SDS011;53015;50.046;8.238;2023-12-14T13:49:23;4.18;;;2.47;;
66212;SDS011;53015;50.046;8.238;2023-12-14T13:51:49;4.43;;;2.58;;
66212;SDS011;53015;50.046;8.238;2023-12-14T13:54:14;3.17;;;2.33;;
66212;SDS011;53015;50.046;8.238;2023-12-14T13:56:40;4.80;;;2.65;;
66212;SDS011;53015;50.046;8.238;2023-12-14T13:59:06;4.43;;;2.65;;
66212;SDS011;53015;50.046;8.238;2023-12-14T14:01:32;2.78;;;2.00;;
66212;SDS011;53015;50.046;8.238;2023-12-14T14:03:57;4.95;;;2.20;;
66212;SDS011;53015;50.046;8.238;2023-12-14T14:06:23;3.53;;;2.25;;
66212;SDS011;53015;50.046;8.238;2023-12-14T14:08:48;3.35;;;1.90;;
66212;SDS011;53015;50.046;8.238;2023-12-14T14:11:14;2.53;;;1.98;;
66212;SDS011;53015;50.046;8.238;2023-12-14T14:13:39;3.00;;;1.90;;
66212;SDS011;53015;50.046;8.238;2023-12-14T14:16:07;2.75;;;1.73;;
66212;SDS011;53015;50.046;8.238;2023-12-14T14:18:33;4.97;;;1.70;;
66212;SDS011;53015;50.046;8.238;2023-12-14T14:20:59;1.83;;;1.50;;
66212;SDS011;53015;50.046;8.238;2023-12-14T14:23:24;3.42;;;1.55;;
66212;SDS011;53015;50.046;8.238;2023-12-14T14:25:50;1.83;;;1.45;;
66212;SDS011;53015;50.046;8.238;2023-12-14T14:28:16;1.88;;;1.45;;
66212;SDS011;53015;50.046;8.238;2023-12-14T14:30:41;1.63;;;1.15;;
66212;SDS011;53015;50.046;8.238;2023-12-14T14:33:08;3.95;;;2.50;;
66212;SDS011;53015;50.046;8.238;2023-12-14T14:35:34;1.85;;;1.42;;
66212;SDS011;53015;50.046;8.238;2023-12-14T14:37:59;1.23;;;1.10;;
66212;SDS011;53015;50.046;8.238;2023-12-14T14:40:25;1.23;;;1.13;;
66212;SDS011;53015;50.046;8.238;2023-12-14T14:42:50;2.05;;;1.20;;